sensor_id;sensor_type;location;lat;lon;timestamp;pressure;altitude;pressure_sealevel;temperature;humidity
65190;BME280;51777;53.570;9.984;2023-02-14T00:01:50;103500.41;;;6.82;100.00
65190;BME280;51777;53.570;9.984;2023-02-14T00:04:17;103504.66;;;6.83;100.00
65190;BME280;51777;53.570;9.984;2023-02-14T00:06:43;103502.00;;;6.86;100.00
65190;BME280;51777;53.570;9.984;2023-02-14T00:09:15;103504.38;;;6.91;100.00
65190;BME280;51777;53.570;9.984;2023-02-14T00:11:41;103507.75;;;6.93;100.00
65190;BME280;51777;53.570;9.984;2023-02-14T00:14:07;103504.38;;;6.91;100.00
65190;BME280;51777;53.570;9.984;2023-02-14T00:16:51;103504.50;;;6.88;100.00
65190;BME280;51777;53.570;9.984;2023-02-14T00:19:18;103507.00;;;6.89;100.00
65190;BME280;51777;53.570;9.984;2023-02-14T00:21:44;103511.31;;;6.89;100.00
65190;BME280;51777;53.570;9.984;2023-02-14T00:24:21;103509.69;;;6.86;100.00
65190;BME280;51777;53.570;9.984;2023-02-14T00:26:47;103514.06;;;6.84;100.00
65190;BME280;51777;53.570;9.984;2023-02-14T00:29:15;103514.84;;;6.86;100.00
65190;BME280;51777;53.570;9.984;2023-02-14T00:31:41;103525.06;;;6.88;100.00
65190;BME280;51777;53.570;9.984;2023-02-14T00:34:07;103514.84;;;6.86;100.00
65190;BME280;51777;53.570;9.984;2023-02-14T00:36:33;103514.91;;;6.85;100.00
65190;BME280;51777;53.570;9.984;2023-02-14T00:39:02;103508.03;;;6.85;100.00
65190;BME280;51777;53.570;9.984;2023-02-14T00:41:30;103511.38;;;6.87;100.00
65190;BME280;51777;53.570;9.984;2023-02-14T00:43:57;103512.81;;;6.71;100.00
65190;BME280;51777;53.570;9.984;2023-02-14T00:46:24;103510.22;;;6.71;100.00
65190;BME280;51777;53.570;9.984;2023-02-14T00:48:50;103507.56;;;6.74;100.00
65190;BME280;51777;53.570;9.984;2023-02-14T00:51:17;103504.38;;;6.66;100.00
65190;BME280;51777;53.570;9.984;2023-02-14T00:53:44;103513.00;;;6.65;100.00
65190;BME280;51777;53.570;9.984;2023-02-14T00:56:10;103506.81;;;6.70;100.00
65190;BME280;51777;53.570;9.984;2023-02-14T00:58:35;103506.28;;;6.61;100.00
65190;BME280;51777;53.570;9.984;2023-02-14T01:01:01;103501.94;;;6.63;100.00
65190;BME280;51777;53.570;9.984;2023-02-14T01:03:26;103502.53;;;6.69;100.00
65190;BME280;51777;53.570;9.984;2023-02-14T01:05:52;103498.22;;;6.71;100.00
65190;BME280;51777;53.570;9.984;2023-02-14T01:08:18;103499.13;;;6.69;100.00
65190;BME280;51777;53.570;9.984;2023-02-14T01:10:44;103502.81;;;6.62;100.00
65190;BME280;51777;53.570;9.984;2023-02-14T01:13:11;103490.97;;;6.58;100.00
65190;BME280;51777;53.570;9.984;2023-02-14T01:15:45;103492.53;;;6.62;100.00
65190;BME280;51777;53.570;9.984;2023-02-14T01:18:11;103489.69;;;6.69;100.00
65190;BME280;51777;53.570;9.984;2023-02-14T01:20:37;103486.88;;;6.52;100.00
65190;BME280;51777;53.570;9.984;2023-02-14T01:23:03;103488.91;;;6.42;100.00
65190;BME280;51777;53.570;9.984;2023-02-14T01:25:28;103479.41;;;6.44;100.00
65190;BME280;51777;53.570;9.984;2023-02-14T01:27:54;103479.09;;;6.54;100.00
65190;BME280;51777;53.570;9.984;2023-02-14T01:30:20;103477.22;;;6.59;100.00
65190;BME280;51777;53.570;9.984;2023-02-14T01:32:46;103479.03;;;6.55;100.00
65190;BME280;51777;53.570;9.984;2023-02-14T01:35:11;103476.03;;;6.42;100.00
65190;BME280;51777;53.570;9.984;2023-02-14T01:37:37;103477.84;;;6.40;100.00
65190;BME280;51777;53.570;9.984;2023-02-14T01:40:05;103478.56;;;6.44;100.00
65190;BME280;51777;53.570;9.984;2023-02-14T01:42:32;103479.50;;;6.41;100.00
65190;BME280;51777;53.570;9.984;2023-02-14T01:47:56;103476.16;;;6.39;100.00
65190;BME280;51777;53.570;9.984;2023-02-14T01:50:27;103479.22;;;6.51;100.00
65190;BME280;51777;53.570;9.984;2023-02-14T01:52:57;103476.47;;;6.55;100.00
65190;BME280;51777;53.570;9.984;2023-02-14T01:55:29;103464.31;;;6.60;100.00
65190;BME280;51777;53.570;9.984;2023-02-14T01:57:59;103462.69;;;6.58;100.00
65190;BME280;51777;53.570;9.984;2023-02-14T02:00:26;103461.38;;;6.46;100.00
65190;BME280;51777;53.570;9.984;2023-02-14T02:03:11;103459.72;;;6.45;100.00
65190;BME280;51777;53.570;9.984;2023-02-14T02:05:43;103456.25;;;6.44;100.00
65190;BME280;51777;53.570;9.984;2023-02-14T02:08:10;103460.53;;;6.45;100.00
65190;BME280;51777;53.570;9.984;2023-02-14T02:10:36;103462.94;;;6.25;100.00
65190;BME280;51777;53.570;9.984;2023-02-14T02:13:05;103456.72;;;6.31;100.00
65190;BME280;51777;53.570;9.984;2023-02-14T02:15:48;103459.47;;;6.26;100.00
65190;BME280;51777;53.570;9.984;2023-02-14T02:18:18;103456.69;;;6.32;100.00
65190;BME280;51777;53.570;9.984;2023-02-14T02:40:37;103440.69;;;6.24;100.00
65190;BME280;51777;53.570;9.984;2023-02-14T02:46:08;103435.91;;;6.13;100.00
65190;BME280;51777;53.570;9.984;2023-02-14T02:49:03;103435.97;;;6.12;100.00
65190;BME280;51777;53.570;9.984;2023-02-14T02:51:43;103430.59;;;6.18;100.00
65190;BME280;51777;53.570;9.984;2023-02-14T02:54:41;103434.97;;;6.16;100.00
65190;BME280;51777;53.570;9.984;2023-02-14T02:57:15;103439.25;;;6.15;100.00
65190;BME280;51777;53.570;9.984;2023-02-14T02:59:44;103433.19;;;6.18;100.00
65190;BME280;51777;53.570;9.984;2023-02-14T03:04:57;103431.97;;;6.03;100.00
65190;BME280;51777;53.570;9.984;2023-02-14T03:10:26;103438.22;;;5.95;100.00
65190;BME280;51777;53.570;9.984;2023-02-14T03:13:23;103431.41;;;5.94;100.00
65190;BME280;51777;53.570;9.984;2023-02-14T03:21:59;103422.31;;;5.83;100.00
65190;BME280;51777;53.570;9.984;2023-02-14T03:27:14;103424.66;;;5.89;100.00
65190;BME280;51777;53.570;9.984;2023-02-14T03:30:00;103427.94;;;5.95;100.00
65190;BME280;51777;53.570;9.984;2023-02-14T03:32:44;103427.88;;;5.98;100.00
65190;BME280;51777;53.570;9.984;2023-02-14T03:35:59;103420.47;;;5.87;100.00
65190;BME280;51777;53.570;9.984;2023-02-14T03:38:34;103417.13;;;5.85;100.00
65190;BME280;51777;53.570;9.984;2023-02-14T03:41:06;103423.94;;;5.86;100.00
65190;BME280;51777;53.570;9.984;2023-02-14T03:43:44;103422.06;;;5.91;100.00
65190;BME280;51777;53.570;9.984;2023-02-14T03:49:06;103410.31;;;5.84;100.00
65190;BME280;51777;53.570;9.984;2023-02-14T03:51:34;103413.94;;;5.77;100.00
65190;BME280;51777;53.570;9.984;2023-02-14T03:54:02;103414.09;;;5.72;100.00
65190;BME280;51777;53.570;9.984;2023-02-14T03:56:38;103415.84;;;5.72;100.00
65190;BME280;51777;53.570;9.984;2023-02-14T03:59:19;103406.47;;;5.69;100.00
65190;BME280;51777;53.570;9.984;2023-02-14T04:01:47;103403.78;;;5.74;100.00
65190;BME280;51777;53.570;9.984;2023-02-14T04:04:16;103406.28;;;5.75;100.00
65190;BME280;51777;53.570;9.984;2023-02-14T04:06:43;103400.13;;;5.81;100.00
65190;BME280;51777;53.570;9.984;2023-02-14T04:09:09;103399.44;;;5.76;100.00
65190;BME280;51777;53.570;9.984;2023-02-14T04:11:34;103397.72;;;5.76;100.00
65190;BME280;51777;53.570;9.984;2023-02-14T04:14:03;103402.94;;;5.73;100.00
65190;BME280;51777;53.570;9.984;2023-02-14T04:16:29;103391.97;;;5.68;100.00
65190;BME280;51777;53.570;9.984;2023-02-14T04:18:54;103385.91;;;5.71;100.00
65190;BME280;51777;53.570;9.984;2023-02-14T04:21:40;103381.56;;;5.73;100.00
65190;BME280;51777;53.570;9.984;2023-02-14T04:24:05;103391.56;;;5.80;100.00
65190;BME280;51777;53.570;9.984;2023-02-14T04:26:30;103390.91;;;5.75;100.00
65190;BME280;51777;53.570;9.984;2023-02-14T04:28:56;103392.56;;;5.76;100.00
65190;BME280;51777;53.570;9.984;2023-02-14T04:31:21;103392.56;;;5.76;100.00
65190;BME280;51777;53.570;9.984;2023-02-14T04:33:46;103382.31;;;5.76;100.00
65190;BME280;51777;53.570;9.984;2023-02-14T04:36:13;103381.19;;;5.85;100.00
65190;BME280;51777;53.570;9.984;2023-02-14T04:38:38;103381.06;;;5.88;100.00
65190;BME280;51777;53.570;9.984;2023-02-14T04:41:04;103384.41;;;5.92;100.00
65190;BME280;51777;53.570;9.984;2023-02-14T04:43:29;103385.28;;;5.91;100.00
65190;BME280;51777;53.570;9.984;2023-02-14T04:45:55;103381.97;;;5.87;100.00
65190;BME280;51777;53.570;9.984;2023-02-14T04:48:20;103384.44;;;5.90;100.00
65190;BME280;51777;53.570;9.984;2023-02-14T04:50:50;103381.72;;;5.95;100.00
65190;BME280;51777;53.570;9.984;2023-02-14T04:53:16;103381.88;;;5.90;100.00
65190;BME280;51777;53.570;9.984;2023-02-14T04:55:43;103376.69;;;5.92;100.00
65190;BME280;51777;53.570;9.984;2023-02-14T04:58:09;103379.22;;;5.93;100.00
65190;BME280;51777;53.570;9.984;2023-02-14T05:00:34;103383.28;;;6.00;100.00
65190;BME280;51777;53.570;9.984;2023-02-14T05:02:59;103378.81;;;6.05;100.00
65190;BME280;51777;53.570;9.984;2023-02-14T05:05:25;103379.88;;;6.00;100.00
65190;BME280;51777;53.570;9.984;2023-02-14T05:07:50;103381.00;;;5.91;100.00
65190;BME280;51777;53.570;9.984;2023-02-14T05:10:16;103372.41;;;5.92;100.00
65190;BME280;51777;53.570;9.984;2023-02-14T05:12:41;103369.78;;;5.94;100.00
65190;BME280;51777;53.570;9.984;2023-02-14T05:15:07;103369.66;;;5.98;100.00
65190;BME280;51777;53.570;9.984;2023-02-14T05:17:32;103372.00;;;6.04;100.00
65190;BME280;51777;53.570;9.984;2023-02-14T05:19:58;103372.00;;;6.04;100.00
65190;BME280;51777;53.570;9.984;2023-02-14T05:22:23;103372.84;;;6.05;100.00
65190;BME280;51777;53.570;9.984;2023-02-14T05:24:49;103380.03;;;5.94;100.00
65190;BME280;51777;53.570;9.984;2023-02-14T05:27:14;103375.56;;;6.00;100.00
65190;BME280;51777;53.570;9.984;2023-02-14T05:29:40;103380.94;;;5.93;100.00
65190;BME280;51777;53.570;9.984;2023-02-14T05:32:05;103379.97;;;5.97;100.00
65190;BME280;51777;53.570;9.984;2023-02-14T05:34:30;103362.88;;;5.96;100.00
65190;BME280;51777;53.570;9.984;2023-02-14T05:36:56;103369.88;;;5.91;100.00
65190;BME280;51777;53.570;9.984;2023-02-14T05:39:21;103368.16;;;5.91;100.00
65190;BME280;51777;53.570;9.984;2023-02-14T05:41:47;103370.75;;;5.89;100.00
65190;BME280;51777;53.570;9.984;2023-02-14T05:44:12;103365.81;;;5.83;100.00
65190;BME280;51777;53.570;9.984;2023-02-14T05:46:38;103361.28;;;5.92;100.00
65190;BME280;51777;53.570;9.984;2023-02-14T05:49:03;103363.56;;;6.01;100.00
65190;BME280;51777;53.570;9.984;2023-02-14T05:51:30;103358.25;;;6.05;100.00
65190;BME280;51777;53.570;9.984;2023-02-14T05:53:56;103366.13;;;6.01;100.00
65190;BME280;51777;53.570;9.984;2023-02-14T05:56:24;103372.63;;;5.84;100.00
65190;BME280;51777;53.570;9.984;2023-02-14T05:58:49;103369.41;;;5.78;100.00
65190;BME280;51777;53.570;9.984;2023-02-14T06:01:15;103365.63;;;5.89;100.00
65190;BME280;51777;53.570;9.984;2023-02-14T06:03:40;103359.38;;;5.98;100.00
65190;BME280;51777;53.570;9.984;2023-02-14T06:06:06;103355.84;;;6.01;100.00
65190;BME280;51777;53.570;9.984;2023-02-14T06:08:31;103350.72;;;6.01;100.00
65190;BME280;51777;53.570;9.984;2023-02-14T06:10:56;103357.53;;;6.02;100.00
65190;BME280;51777;53.570;9.984;2023-02-14T06:13:22;103349.22;;;5.94;100.00
65190;BME280;51777;53.570;9.984;2023-02-14T06:15:49;103354.47;;;5.91;100.00
65190;BME280;51777;53.570;9.984;2023-02-14T06:18:14;103355.97;;;5.98;100.00
65190;BME280;51777;53.570;9.984;2023-02-14T06:20:41;103361.19;;;5.95;100.00
65190;BME280;51777;53.570;9.984;2023-02-14T06:23:06;103361.19;;;5.95;100.00
65190;BME280;51777;53.570;9.984;2023-02-14T06:25:31;103361.78;;;6.03;100.00
65190;BME280;51777;53.570;9.984;2023-02-14T06:27:58;103362.88;;;5.96;100.00
65190;BME280;51777;53.570;9.984;2023-02-14T06:30:24;103371.44;;;5.95;100.00
65190;BME280;51777;53.570;9.984;2023-02-14T06:32:50;103369.00;;;5.92;100.00
65190;BME280;51777;53.570;9.984;2023-02-14T06:35:15;103369.97;;;5.87;100.00
65190;BME280;51777;53.570;9.984;2023-02-14T06:37:41;103373.31;;;5.89;100.00
65190;BME280;51777;53.570;9.984;2023-02-14T06:40:08;103371.69;;;5.87;100.00
65190;BME280;51777;53.570;9.984;2023-02-14T06:42:34;103375.22;;;5.84;100.00
65190;BME280;51777;53.570;9.984;2023-02-14T06:44:59;103368.19;;;5.89;100.00
65190;BME280;51777;53.570;9.984;2023-02-14T06:47:26;103373.31;;;5.89;100.00
65190;BME280;51777;53.570;9.984;2023-02-14T06:49:52;103375.88;;;5.89;100.00
65190;BME280;51777;53.570;9.984;2023-02-14T06:52:17;103381.72;;;5.95;100.00
65190;BME280;51777;53.570;9.984;2023-02-14T06:54:42;103381.66;;;5.98;100.00
65190;BME280;51777;53.570;9.984;2023-02-14T06:57:08;103383.31;;;5.99;100.00
65190;BME280;51777;53.570;9.984;2023-02-14T06:59:33;103388.34;;;6.02;100.00
65190;BME280;51777;53.570;9.984;2023-02-14T07:01:59;103381.44;;;6.04;100.00
65190;BME280;51777;53.570;9.984;2023-02-14T07:04:24;103378.69;;;6.10;100.00
65190;BME280;51777;53.570;9.984;2023-02-14T07:06:50;103388.88;;;6.11;100.00
65190;BME280;51777;53.570;9.984;2023-02-14T07:09:15;103374.38;;;6.10;100.00
65190;BME280;51777;53.570;9.984;2023-02-14T07:11:43;103375.25;;;6.09;100.00
65190;BME280;51777;53.570;9.984;2023-02-14T07:14:09;103375.22;;;6.11;100.00
65190;BME280;51777;53.570;9.984;2023-02-14T07:16:34;103377.78;;;6.11;100.00
65190;BME280;51777;53.570;9.984;2023-02-14T07:19:00;103368.97;;;6.18;100.00
65190;BME280;51777;53.570;9.984;2023-02-14T07:21:25;103375.78;;;6.19;100.00
65190;BME280;51777;53.570;9.984;2023-02-14T07:23:51;103373.00;;;6.25;100.00
65190;BME280;51777;53.570;9.984;2023-02-14T07:26:16;103370.56;;;6.22;100.00
65190;BME280;51777;53.570;9.984;2023-02-14T07:28:46;103366.88;;;6.29;100.00
65190;BME280;51777;53.570;9.984;2023-02-14T07:31:14;103366.72;;;6.34;100.00
65190;BME280;51777;53.570;9.984;2023-02-14T07:33:39;103367.63;;;6.33;100.00
65190;BME280;51777;53.570;9.984;2023-02-14T07:36:06;103374.03;;;6.44;100.00
65190;BME280;51777;53.570;9.984;2023-02-14T07:38:33;103368.88;;;6.44;100.00
65190;BME280;51777;53.570;9.984;2023-02-14T07:40:58;103373.94;;;6.47;100.00
65190;BME280;51777;53.570;9.984;2023-02-14T07:43:24;103376.47;;;6.49;100.00
65190;BME280;51777;53.570;9.984;2023-02-14T07:45:50;103369.00;;;6.41;100.00
65190;BME280;51777;53.570;9.984;2023-02-14T07:48:15;103378.91;;;6.52;100.00
65190;BME280;51777;53.570;9.984;2023-02-14T07:50:41;103367.63;;;6.56;100.00
65190;BME280;51777;53.570;9.984;2023-02-14T07:53:06;103370.72;;;6.66;100.00
65190;BME280;51777;53.570;9.984;2023-02-14T07:55:33;103365.50;;;6.67;100.00
65190;BME280;51777;53.570;9.984;2023-02-14T07:57:59;103365.56;;;6.66;100.00
65190;BME280;51777;53.570;9.984;2023-02-14T08:00:24;103364.34;;;6.76;100.00
65190;BME280;51777;53.570;9.984;2023-02-14T08:02:50;103370.25;;;6.78;100.00
65190;BME280;51777;53.570;9.984;2023-02-14T08:05:15;103364.91;;;6.84;100.00
65190;BME280;51777;53.570;9.984;2023-02-14T08:07:41;103361.06;;;6.94;100.00
65190;BME280;51777;53.570;9.984;2023-02-14T08:10:08;103364.66;;;7.14;100.00
65190;BME280;51777;53.570;9.984;2023-02-14T08:12:34;103367.84;;;7.20;100.00
65190;BME280;51777;53.570;9.984;2023-02-14T08:15:18;103371.28;;;7.63;100.00
65190;BME280;51777;53.570;9.984;2023-02-14T08:18:02;103361.38;;;8.56;100.00
65190;BME280;51777;53.570;9.984;2023-02-14T08:20:28;103362.66;;;8.85;100.00
65190;BME280;51777;53.570;9.984;2023-02-14T08:22:54;103369.03;;;8.96;100.00
65190;BME280;51777;53.570;9.984;2023-02-14T08:25:19;103368.47;;;9.79;100.00
65190;BME280;51777;53.570;9.984;2023-02-14T08:27:44;103367.00;;;9.92;100.00
65190;BME280;51777;53.570;9.984;2023-02-14T08:30:10;103370.06;;;9.64;100.00
65190;BME280;51777;53.570;9.984;2023-02-14T08:32:36;103376.75;;;11.34;100.00
65190;BME280;51777;53.570;9.984;2023-02-14T08:35:01;103383.34;;;13.28;100.00
65190;BME280;51777;53.570;9.984;2023-02-14T08:37:26;103388.81;;;14.66;100.00
65190;BME280;51777;53.570;9.984;2023-02-14T08:39:52;103389.94;;;16.28;100.00
65190;BME280;51777;53.570;9.984;2023-02-14T08:42:17;103398.38;;;18.04;100.00
65190;BME280;51777;53.570;9.984;2023-02-14T08:44:42;103408.66;;;18.57;100.00
65190;BME280;51777;53.570;9.984;2023-02-14T08:47:09;103408.41;;;18.60;100.00
65190;BME280;51777;53.570;9.984;2023-02-14T08:49:34;103413.84;;;17.22;100.00
65190;BME280;51777;53.570;9.984;2023-02-14T08:51:59;103409.19;;;17.90;100.00
65190;BME280;51777;53.570;9.984;2023-02-14T08:54:25;103406.31;;;17.40;100.00
65190;BME280;51777;53.570;9.984;2023-02-14T08:56:50;103407.78;;;17.22;100.00
65190;BME280;51777;53.570;9.984;2023-02-14T08:59:16;103404.31;;;16.67;100.00
65190;BME280;51777;53.570;9.984;2023-02-14T09:01:41;103404.72;;;17.81;100.00
65190;BME280;51777;53.570;9.984;2023-02-14T09:04:06;103414.28;;;18.12;100.00
65190;BME280;51777;53.570;9.984;2023-02-14T09:06:36;103408.56;;;17.77;100.00
65190;BME280;51777;53.570;9.984;2023-02-14T09:09:02;103411.94;;;18.40;100.00
65190;BME280;51777;53.570;9.984;2023-02-14T09:11:28;103417.66;;;19.04;100.00
65190;BME280;51777;53.570;9.984;2023-02-14T09:13:53;103406.69;;;18.70;100.00
65190;BME280;51777;53.570;9.984;2023-02-14T09:16:20;103406.03;;;18.97;100.00
65190;BME280;51777;53.570;9.984;2023-02-14T09:18:46;103415.06;;;19.14;100.00
65190;BME280;51777;53.570;9.984;2023-02-14T09:21:14;103408.66;;;18.57;100.00
65190;BME280;51777;53.570;9.984;2023-02-14T09:23:41;103398.66;;;18.01;100.00
65190;BME280;51777;53.570;9.984;2023-02-14T09:26:09;103410.38;;;19.27;100.00
65190;BME280;51777;53.570;9.984;2023-02-14T09:28:35;103398.75;;;19.01;100.00
65190;BME280;51777;53.570;9.984;2023-02-14T09:33:39;103405.25;;;18.26;100.00
65190;BME280;51777;53.570;9.984;2023-02-14T09:36:24;103396.59;;;18.05;100.00
65190;BME280;51777;53.570;9.984;2023-02-14T09:38:49;103392.16;;;17.75;100.00
65190;BME280;51777;53.570;9.984;2023-02-14T09:44:31;103383.44;;;15.65;100.00
65190;BME280;51777;53.570;9.984;2023-02-14T09:47:06;103365.19;;;14.18;100.00
65190;BME280;51777;53.570;9.984;2023-02-14T09:49:37;103356.69;;;12.83;100.00
65190;BME280;51777;53.570;9.984;2023-02-14T09:52:05;103357.00;;;11.93;100.00
65190;BME280;51777;53.570;9.984;2023-02-14T09:54:34;103353.00;;;11.71;100.00
65190;BME280;51777;53.570;9.984;2023-02-14T10:05:29;103340.31;;;10.42;100.00
65190;BME280;51777;53.570;9.984;2023-02-14T10:10:45;103334.50;;;10.04;100.00
65190;BME280;51777;53.570;9.984;2023-02-14T10:13:20;103334.91;;;9.96;100.00
65190;BME280;51777;53.570;9.984;2023-02-14T10:15:58;103341.81;;;9.96;100.00
65190;BME280;51777;53.570;9.984;2023-02-14T10:18:38;103341.59;;;9.83;100.00
65190;BME280;51777;53.570;9.984;2023-02-14T10:21:05;103330.72;;;9.77;100.00
65190;BME280;51777;53.570;9.984;2023-02-14T10:23:57;103330.78;;;9.75;100.00
65190;BME280;51777;53.570;9.984;2023-02-14T10:26:36;103335.03;;;9.41;100.00
65190;BME280;51777;53.570;9.984;2023-02-14T10:29:05;103334.44;;;9.54;100.00
65190;BME280;51777;53.570;9.984;2023-02-14T10:32:00;103324.19;;;9.69;100.00
65190;BME280;51777;53.570;9.984;2023-02-14T10:40:23;103325.94;;;9.86;100.00
65190;BME280;51777;53.570;9.984;2023-02-14T10:51:12;103316.53;;;9.68;100.00
65190;BME280;51777;53.570;9.984;2023-02-14T10:56:11;103323.56;;;9.64;100.00
65190;BME280;51777;53.570;9.984;2023-02-14T10:58:43;103307.25;;;9.47;100.00
65190;BME280;51777;53.570;9.984;2023-02-14T11:01:15;103318.19;;;9.69;100.00
65190;BME280;51777;53.570;9.984;2023-02-14T11:03:57;103313.19;;;9.83;100.00
65190;BME280;51777;53.570;9.984;2023-02-14T11:06:31;103307.38;;;9.78;100.00
65190;BME280;51777;53.570;9.984;2023-02-14T11:08:56;103308.78;;;9.68;100.00
65190;BME280;51777;53.570;9.984;2023-02-14T11:11:38;103305.19;;;9.70;100.00
65190;BME280;51777;53.570;9.984;2023-02-14T11:14:32;103309.78;;;9.29;100.00
65190;BME280;51777;53.570;9.984;2023-02-14T11:17:25;103303.44;;;9.19;100.00
65190;BME280;51777;53.570;9.984;2023-02-14T11:20:00;103308.53;;;9.38;100.00
65190;BME280;51777;53.570;9.984;2023-02-14T11:22:32;103299.66;;;9.44;100.00
65190;BME280;51777;53.570;9.984;2023-02-14T11:25:09;103297.34;;;9.37;100.00
65190;BME280;51777;53.570;9.984;2023-02-14T11:27:42;103279.38;;;9.36;100.00
65190;BME280;51777;53.570;9.984;2023-02-14T11:30:40;103280.94;;;9.21;100.00
65190;BME280;51777;53.570;9.984;2023-02-14T11:33:31;103275.19;;;9.33;100.00
65190;BME280;51777;53.570;9.984;2023-02-14T11:35:58;103272.59;;;9.51;100.00
65190;BME280;51777;53.570;9.984;2023-02-14T11:38:30;103268.81;;;9.58;100.00
65190;BME280;51777;53.570;9.984;2023-02-14T11:40:58;103267.38;;;9.69;100.00
65190;BME280;51777;53.570;9.984;2023-02-14T11:43:32;103269.41;;;9.80;100.00
65190;BME280;51777;53.570;9.984;2023-02-14T11:49:02;103264.16;;;9.82;100.00
65190;BME280;51777;53.570;9.984;2023-02-14T11:51:34;103251.94;;;9.51;100.00
65190;BME280;51777;53.570;9.984;2023-02-14T11:54:02;103243.41;;;9.66;100.00
65190;BME280;51777;53.570;9.984;2023-02-14T11:57:03;103252.84;;;9.67;100.00
65190;BME280;51777;53.570;9.984;2023-02-14T11:59:37;103241.66;;;9.66;100.00
65190;BME280;51777;53.570;9.984;2023-02-14T12:04:48;103232.53;;;9.44;100.00
65190;BME280;51777;53.570;9.984;2023-02-14T12:07:20;103230.38;;;9.69;100.00
65190;BME280;51777;53.570;9.984;2023-02-14T12:12:50;103224.25;;;9.87;100.00
65190;BME280;51777;53.570;9.984;2023-02-14T12:15:29;103215.56;;;9.88;100.00
65190;BME280;51777;53.570;9.984;2023-02-14T12:18:21;103217.50;;;10.00;100.00
65190;BME280;51777;53.570;9.984;2023-02-14T12:20:54;103211.75;;;9.95;100.00
65190;BME280;51777;53.570;9.984;2023-02-14T12:23:39;103207.44;;;9.96;100.00
65190;BME280;51777;53.570;9.984;2023-02-14T12:28:53;103207.34;;;9.97;100.00
65190;BME280;51777;53.570;9.984;2023-02-14T12:31:21;103207.97;;;9.85;100.00
65190;BME280;51777;53.570;9.984;2023-02-14T12:33:46;103210.00;;;9.96;100.00
65190;BME280;51777;53.570;9.984;2023-02-14T12:39:31;103214.88;;;10.18;100.00
65190;BME280;51777;53.570;9.984;2023-02-14T12:48:01;103196.56;;;10.22;100.00
65190;BME280;51777;53.570;9.984;2023-02-14T12:55:51;103187.59;;;10.12;100.00
65190;BME280;51777;53.570;9.984;2023-02-14T12:58:33;103180.97;;;10.24;100.00
65190;BME280;51777;53.570;9.984;2023-02-14T13:06:34;103169.03;;;10.21;100.00
65190;BME280;51777;53.570;9.984;2023-02-14T13:09:09;103155.00;;;10.25;100.00
65190;BME280;51777;53.570;9.984;2023-02-14T13:12:09;103151.09;;;10.34;100.00
65190;BME280;51777;53.570;9.984;2023-02-14T13:22:49;103145.31;;;10.29;100.00
65190;BME280;51777;53.570;9.984;2023-02-14T13:25:30;103139.28;;;10.30;100.00
65190;BME280;51777;53.570;9.984;2023-02-14T13:28:08;103139.09;;;10.33;100.00
65190;BME280;51777;53.570;9.984;2023-02-14T13:30:36;103136.00;;;10.42;100.00
65190;BME280;51777;53.570;9.984;2023-02-14T13:33:29;103118.47;;;10.47;100.00
65190;BME280;51777;53.570;9.984;2023-02-14T13:35:59;103119.94;;;10.51;100.00
65190;BME280;51777;53.570;9.984;2023-02-14T13:38:26;103114.94;;;10.48;100.00
65190;BME280;51777;53.570;9.984;2023-02-14T13:40:54;103114.78;;;10.51;100.00
65190;BME280;51777;53.570;9.984;2023-02-14T13:43:58;103111.84;;;10.57;100.00
65190;BME280;51777;53.570;9.984;2023-02-14T13:51:49;103108.22;;;10.46;100.00
65190;BME280;51777;53.570;9.984;2023-02-14T13:54:45;103102.66;;;10.52;100.00
65190;BME280;51777;53.570;9.984;2023-02-14T13:57:31;103108.94;;;10.48;100.00
65190;BME280;51777;53.570;9.984;2023-02-14T14:02:46;103101.41;;;10.59;100.00
65190;BME280;51777;53.570;9.984;2023-02-14T14:18:55;103089.13;;;10.63;100.00
65190;BME280;51777;53.570;9.984;2023-02-14T14:21:35;103099.28;;;10.66;100.00
65190;BME280;51777;53.570;9.984;2023-02-14T14:27:20;103090.97;;;10.61;100.00
65190;BME280;51777;53.570;9.984;2023-02-14T14:29:53;103091.53;;;10.66;100.00
65190;BME280;51777;53.570;9.984;2023-02-14T14:32:29;103094.06;;;10.67;100.00
65190;BME280;51777;53.570;9.984;2023-02-14T14:35:00;103093.84;;;10.56;100.00
65190;BME280;51777;53.570;9.984;2023-02-14T14:37:30;103081.00;;;10.54;100.00
65190;BME280;51777;53.570;9.984;2023-02-14T14:42:38;103089.22;;;10.61;100.00
65190;BME280;51777;53.570;9.984;2023-02-14T14:45:26;103083.94;;;10.63;100.00
65190;BME280;51777;53.570;9.984;2023-02-14T14:48:02;103081.56;;;10.59;100.00
65190;BME280;51777;53.570;9.984;2023-02-14T14:50:34;103076.44;;;10.44;100.00
65190;BME280;51777;53.570;9.984;2023-02-14T14:53:03;103074.75;;;10.43;100.00
65190;BME280;51777;53.570;9.984;2023-02-14T14:55:31;103077.06;;;10.47;100.00
65190;BME280;51777;53.570;9.984;2023-02-14T14:58:06;103071.16;;;10.45;100.00
65190;BME280;51777;53.570;9.984;2023-02-14T15:00:37;103074.50;;;10.47;100.00
65190;BME280;51777;53.570;9.984;2023-02-14T15:03:14;103067.06;;;10.41;100.00
65190;BME280;51777;53.570;9.984;2023-02-14T15:05:46;103057.72;;;10.39;100.00
65190;BME280;51777;53.570;9.984;2023-02-14T15:10:55;103052.00;;;10.34;100.00
65190;BME280;51777;53.570;9.984;2023-02-14T15:13:43;103045.00;;;10.36;100.00
65190;BME280;51777;53.570;9.984;2023-02-14T15:16:27;103045.81;;;10.36;100.00
65190;BME280;51777;53.570;9.984;2023-02-14T15:18:59;103043.41;;;10.33;100.00
65190;BME280;51777;53.570;9.984;2023-02-14T15:21:31;103046.91;;;10.32;100.00
65190;BME280;51777;53.570;9.984;2023-02-14T15:23:57;103049.84;;;10.26;100.00
65190;BME280;51777;53.570;9.984;2023-02-14T15:26:29;103048.78;;;10.30;100.00
65190;BME280;51777;53.570;9.984;2023-02-14T15:29:03;103034.22;;;10.27;100.00
65190;BME280;51777;53.570;9.984;2023-02-14T15:31:35;103031.66;;;10.27;100.00